sensor_id;sensor_type;location;lat;lon;timestamp;P1;durP1;ratioP1;P2;durP2;ratioP2
28724;SDS011;43472;48.980;9.646;2023-08-17T00:00:40;3.83;;;2.80;;
28724;SDS011;43472;48.980;9.646;2023-08-17T00:05:42;5.28;;;2.50;;
28724;SDS011;43472;48.980;9.646;2023-08-17T00:10:44;7.80;;;2.95;;
28724;SDS011;43472;48.980;9.646;2023-08-17T00:15:46;5.88;;;3.60;;
28724;SDS011;43472;48.980;9.646;2023-08-17T00:20:48;4.22;;;3.00;;
28724;SDS011;43472;48.980;9.646;2023-08-17T00:25:49;5.30;;;2.90;;
28724;SDS011;43472;48.980;9.646;2023-08-17T00:30:52;9.15;;;2.70;;
28724;SDS011;43472;48.980;9.646;2023-08-17T00:35:53;13.38;;;3.67;;
28724;SDS011;43472;48.980;9.646;2023-08-17T00:40:55;7.32;;;2.58;;
28724;SDS011;43472;48.980;9.646;2023-08-17T00:45:57;7.10;;;3.30;;
28724;SDS011;43472;48.980;9.646;2023-08-17T00:51:00;4.60;;;3.00;;
28724;SDS011;43472;48.980;9.646;2023-08-17T00:56:03;5.45;;;3.63;;
28724;SDS011;43472;48.980;9.646;2023-08-17T01:01:05;14.00;;;2.88;;
28724;SDS011;43472;48.980;9.646;2023-08-17T01:06:07;6.03;;;2.83;;
28724;SDS011;43472;48.980;9.646;2023-08-17T01:16:35;4.50;;;3.03;;
28724;SDS011;43472;48.980;9.646;2023-08-17T01:21:46;7.37;;;3.17;;
28724;SDS011;43472;48.980;9.646;2023-08-17T01:26:51;7.90;;;2.80;;
28724;SDS011;43472;48.980;9.646;2023-08-17T01:37:32;5.72;;;3.47;;
28724;SDS011;43472;48.980;9.646;2023-08-17T01:42:36;10.02;;;3.75;;
28724;SDS011;43472;48.980;9.646;2023-08-17T01:47:39;8.23;;;2.95;;
28724;SDS011;43472;48.980;9.646;2023-08-17T01:52:40;4.80;;;3.33;;
28724;SDS011;43472;48.980;9.646;2023-08-17T01:57:42;8.18;;;3.17;;
28724;SDS011;43472;48.980;9.646;2023-08-17T02:02:44;6.80;;;3.08;;
28724;SDS011;43472;48.980;9.646;2023-08-17T02:07:46;6.10;;;3.50;;
28724;SDS011;43472;48.980;9.646;2023-08-17T02:12:49;10.52;;;3.92;;
28724;SDS011;43472;48.980;9.646;2023-08-17T02:18:00;7.88;;;2.45;;
28724;SDS011;43472;48.980;9.646;2023-08-17T02:23:02;9.82;;;3.25;;
28724;SDS011;43472;48.980;9.646;2023-08-17T02:28:05;6.50;;;2.70;;
28724;SDS011;43472;48.980;9.646;2023-08-17T02:33:07;9.00;;;2.97;;
28724;SDS011;43472;48.980;9.646;2023-08-17T02:38:09;13.55;;;3.13;;
28724;SDS011;43472;48.980;9.646;2023-08-17T02:43:11;5.55;;;2.88;;
28724;SDS011;43472;48.980;9.646;2023-08-17T02:48:13;9.80;;;4.80;;
28724;SDS011;43472;48.980;9.646;2023-08-17T02:53:15;11.07;;;3.13;;
28724;SDS011;43472;48.980;9.646;2023-08-17T02:58:17;6.13;;;3.25;;
28724;SDS011;43472;48.980;9.646;2023-08-17T03:03:21;8.57;;;3.92;;
28724;SDS011;43472;48.980;9.646;2023-08-17T03:08:24;9.70;;;4.43;;
28724;SDS011;43472;48.980;9.646;2023-08-17T03:13:27;8.25;;;4.32;;
28724;SDS011;43472;48.980;9.646;2023-08-17T03:18:35;8.05;;;4.10;;
28724;SDS011;43472;48.980;9.646;2023-08-17T03:23:40;14.27;;;4.75;;
28724;SDS011;43472;48.980;9.646;2023-08-17T03:28:44;8.48;;;4.75;;
28724;SDS011;43472;48.980;9.646;2023-08-17T03:33:48;21.48;;;5.07;;
28724;SDS011;43472;48.980;9.646;2023-08-17T03:38:54;19.02;;;5.60;;
28724;SDS011;43472;48.980;9.646;2023-08-17T03:43:56;19.80;;;5.32;;
28724;SDS011;43472;48.980;9.646;2023-08-17T03:48:58;10.60;;;4.47;;
28724;SDS011;43472;48.980;9.646;2023-08-17T03:54:00;13.48;;;5.40;;
28724;SDS011;43472;48.980;9.646;2023-08-17T03:59:02;12.80;;;4.70;;
28724;SDS011;43472;48.980;9.646;2023-08-17T04:04:05;8.40;;;5.05;;
28724;SDS011;43472;48.980;9.646;2023-08-17T04:09:11;14.55;;;5.40;;
28724;SDS011;43472;48.980;9.646;2023-08-17T04:14:13;16.48;;;4.45;;
28724;SDS011;43472;48.980;9.646;2023-08-17T04:19:15;15.75;;;4.97;;
28724;SDS011;43472;48.980;9.646;2023-08-17T04:24:17;14.15;;;5.15;;
28724;SDS011;43472;48.980;9.646;2023-08-17T04:29:18;11.80;;;4.32;;
28724;SDS011;43472;48.980;9.646;2023-08-17T04:34:20;3.58;;;3.25;;
28724;SDS011;43472;48.980;9.646;2023-08-17T04:39:22;4.32;;;3.58;;
28724;SDS011;43472;48.980;9.646;2023-08-17T04:44:24;3.70;;;3.05;;
28724;SDS011;43472;48.980;9.646;2023-08-17T04:49:25;7.60;;;3.92;;
28724;SDS011;43472;48.980;9.646;2023-08-17T04:54:27;16.67;;;4.65;;
28724;SDS011;43472;48.980;9.646;2023-08-17T04:59:29;5.55;;;3.85;;
28724;SDS011;43472;48.980;9.646;2023-08-17T05:04:31;8.32;;;4.07;;
28724;SDS011;43472;48.980;9.646;2023-08-17T05:09:32;6.95;;;3.20;;
28724;SDS011;43472;48.980;9.646;2023-08-17T05:14:34;6.05;;;3.47;;
28724;SDS011;43472;48.980;9.646;2023-08-17T05:19:36;7.78;;;3.83;;
28724;SDS011;43472;48.980;9.646;2023-08-17T05:24:39;5.82;;;3.83;;
28724;SDS011;43472;48.980;9.646;2023-08-17T05:29:41;7.50;;;4.53;;
28724;SDS011;43472;48.980;9.646;2023-08-17T05:34:43;12.85;;;4.55;;
28724;SDS011;43472;48.980;9.646;2023-08-17T05:39:44;61.47;;;10.93;;
28724;SDS011;43472;48.980;9.646;2023-08-17T05:44:46;21.15;;;6.28;;
28724;SDS011;43472;48.980;9.646;2023-08-17T05:49:48;28.80;;;6.18;;
28724;SDS011;43472;48.980;9.646;2023-08-17T05:54:50;32.63;;;6.15;;
28724;SDS011;43472;48.980;9.646;2023-08-17T05:59:52;12.27;;;4.75;;
28724;SDS011;43472;48.980;9.646;2023-08-17T06:04:53;12.98;;;5.07;;
28724;SDS011;43472;48.980;9.646;2023-08-17T06:09:55;30.80;;;6.18;;
28724;SDS011;43472;48.980;9.646;2023-08-17T06:14:57;5.47;;;4.10;;
28724;SDS011;43472;48.980;9.646;2023-08-17T06:19:59;12.10;;;5.35;;
28724;SDS011;43472;48.980;9.646;2023-08-17T06:25:00;7.13;;;5.63;;
28724;SDS011;43472;48.980;9.646;2023-08-17T06:30:03;7.72;;;4.80;;
28724;SDS011;43472;48.980;9.646;2023-08-17T06:35:05;7.05;;;4.80;;
28724;SDS011;43472;48.980;9.646;2023-08-17T06:40:08;6.32;;;4.93;;
28724;SDS011;43472;48.980;9.646;2023-08-17T06:45:10;7.22;;;5.53;;
28724;SDS011;43472;48.980;9.646;2023-08-17T06:50:12;5.63;;;4.05;;
28724;SDS011;43472;48.980;9.646;2023-08-17T06:55:14;4.68;;;3.72;;
28724;SDS011;43472;48.980;9.646;2023-08-17T07:00:17;7.13;;;4.47;;
28724;SDS011;43472;48.980;9.646;2023-08-17T07:05:23;4.53;;;3.97;;
28724;SDS011;43472;48.980;9.646;2023-08-17T07:10:25;4.63;;;4.20;;
28724;SDS011;43472;48.980;9.646;2023-08-17T07:15:28;8.98;;;4.80;;
28724;SDS011;43472;48.980;9.646;2023-08-17T07:20:30;7.53;;;4.13;;
28724;SDS011;43472;48.980;9.646;2023-08-17T07:25:31;5.30;;;4.30;;
28724;SDS011;43472;48.980;9.646;2023-08-17T07:30:34;5.15;;;4.35;;
28724;SDS011;43472;48.980;9.646;2023-08-17T07:35:36;5.70;;;3.80;;
28724;SDS011;43472;48.980;9.646;2023-08-17T07:40:38;5.20;;;4.05;;
28724;SDS011;43472;48.980;9.646;2023-08-17T07:45:39;4.15;;;3.67;;
28724;SDS011;43472;48.980;9.646;2023-08-17T07:50:41;7.53;;;4.18;;
28724;SDS011;43472;48.980;9.646;2023-08-17T07:55:43;6.63;;;3.50;;
28724;SDS011;43472;48.980;9.646;2023-08-17T08:00:45;7.38;;;3.72;;
28724;SDS011;43472;48.980;9.646;2023-08-17T08:05:46;5.18;;;3.28;;
28724;SDS011;43472;48.980;9.646;2023-08-17T08:10:48;5.75;;;3.72;;
28724;SDS011;43472;48.980;9.646;2023-08-17T08:15:50;6.40;;;4.30;;
28724;SDS011;43472;48.980;9.646;2023-08-17T08:20:52;7.15;;;3.50;;
28724;SDS011;43472;48.980;9.646;2023-08-17T08:25:54;4.53;;;3.47;;
28724;SDS011;43472;48.980;9.646;2023-08-17T08:31:00;7.40;;;3.65;;
28724;SDS011;43472;48.980;9.646;2023-08-17T08:36:04;8.20;;;3.95;;
28724;SDS011;43472;48.980;9.646;2023-08-17T08:41:07;8.43;;;3.88;;
28724;SDS011;43472;48.980;9.646;2023-08-17T08:46:10;4.47;;;3.80;;
28724;SDS011;43472;48.980;9.646;2023-08-17T08:51:13;5.60;;;3.58;;
28724;SDS011;43472;48.980;9.646;2023-08-17T08:56:22;5.72;;;3.55;;
28724;SDS011;43472;48.980;9.646;2023-08-17T09:01:25;4.63;;;3.33;;
28724;SDS011;43472;48.980;9.646;2023-08-17T09:06:29;5.10;;;4.18;;
28724;SDS011;43472;48.980;9.646;2023-08-17T09:11:31;6.15;;;3.67;;
28724;SDS011;43472;48.980;9.646;2023-08-17T09:16:33;6.72;;;3.85;;
28724;SDS011;43472;48.980;9.646;2023-08-17T09:21:35;7.20;;;3.97;;
28724;SDS011;43472;48.980;9.646;2023-08-17T09:26:37;6.15;;;4.32;;
28724;SDS011;43472;48.980;9.646;2023-08-17T09:31:40;7.28;;;4.28;;
28724;SDS011;43472;48.980;9.646;2023-08-17T09:36:41;7.55;;;4.43;;
28724;SDS011;43472;48.980;9.646;2023-08-17T09:41:46;4.35;;;3.95;;
28724;SDS011;43472;48.980;9.646;2023-08-17T09:46:48;7.82;;;4.38;;
28724;SDS011;43472;48.980;9.646;2023-08-17T09:51:50;5.70;;;4.10;;
28724;SDS011;43472;48.980;9.646;2023-08-17T09:56:55;4.50;;;3.90;;
28724;SDS011;43472;48.980;9.646;2023-08-17T10:01:58;5.82;;;4.20;;
28724;SDS011;43472;48.980;9.646;2023-08-17T10:07:02;7.53;;;4.25;;
28724;SDS011;43472;48.980;9.646;2023-08-17T10:12:09;4.82;;;4.00;;
28724;SDS011;43472;48.980;9.646;2023-08-17T10:17:14;5.80;;;4.43;;
28724;SDS011;43472;48.980;9.646;2023-08-17T10:27:31;4.63;;;3.65;;
28724;SDS011;43472;48.980;9.646;2023-08-17T10:32:34;4.55;;;4.15;;
28724;SDS011;43472;48.980;9.646;2023-08-17T10:37:37;4.78;;;4.20;;
28724;SDS011;43472;48.980;9.646;2023-08-17T10:42:40;5.35;;;4.30;;
28724;SDS011;43472;48.980;9.646;2023-08-17T10:47:41;6.63;;;4.28;;
28724;SDS011;43472;48.980;9.646;2023-08-17T10:52:43;7.35;;;4.70;;
28724;SDS011;43472;48.980;9.646;2023-08-17T10:57:49;7.47;;;4.65;;
28724;SDS011;43472;48.980;9.646;2023-08-17T11:02:56;7.18;;;4.63;;
28724;SDS011;43472;48.980;9.646;2023-08-17T11:08:10;4.97;;;4.38;;
28724;SDS011;43472;48.980;9.646;2023-08-17T11:13:20;6.35;;;4.47;;
28724;SDS011;43472;48.980;9.646;2023-08-17T11:18:22;6.68;;;5.50;;
28724;SDS011;43472;48.980;9.646;2023-08-17T11:23:24;5.50;;;4.18;;
28724;SDS011;43472;48.980;9.646;2023-08-17T11:28:30;5.72;;;3.83;;
28724;SDS011;43472;48.980;9.646;2023-08-17T11:33:43;8.43;;;4.32;;
28724;SDS011;43472;48.980;9.646;2023-08-17T11:38:46;5.85;;;4.07;;
28724;SDS011;43472;48.980;9.646;2023-08-17T11:43:48;4.32;;;3.72;;
28724;SDS011;43472;48.980;9.646;2023-08-17T11:48:51;4.25;;;3.60;;
28724;SDS011;43472;48.980;9.646;2023-08-17T11:53:58;5.82;;;4.18;;
28724;SDS011;43472;48.980;9.646;2023-08-17T11:59:08;7.65;;;3.85;;
28724;SDS011;43472;48.980;9.646;2023-08-17T12:04:12;5.35;;;4.03;;
28724;SDS011;43472;48.980;9.646;2023-08-17T12:09:14;10.30;;;4.20;;
28724;SDS011;43472;48.980;9.646;2023-08-17T12:14:16;5.03;;;3.90;;
28724;SDS011;43472;48.980;9.646;2023-08-17T12:19:20;4.28;;;3.80;;
28724;SDS011;43472;48.980;9.646;2023-08-17T12:24:26;5.18;;;4.00;;
28724;SDS011;43472;48.980;9.646;2023-08-17T12:29:28;4.53;;;4.07;;
28724;SDS011;43472;48.980;9.646;2023-08-17T12:34:30;5.93;;;4.40;;
28724;SDS011;43472;48.980;9.646;2023-08-17T12:39:31;7.38;;;4.05;;
28724;SDS011;43472;48.980;9.646;2023-08-17T12:44:33;5.18;;;3.80;;
28724;SDS011;43472;48.980;9.646;2023-08-17T12:49:35;5.15;;;3.78;;
28724;SDS011;43472;48.980;9.646;2023-08-17T12:54:39;6.93;;;4.15;;
28724;SDS011;43472;48.980;9.646;2023-08-17T12:59:41;8.35;;;4.20;;
28724;SDS011;43472;48.980;9.646;2023-08-17T13:04:43;5.80;;;4.10;;
28724;SDS011;43472;48.980;9.646;2023-08-17T13:09:45;5.50;;;4.30;;
28724;SDS011;43472;48.980;9.646;2023-08-17T13:14:50;9.13;;;4.97;;
28724;SDS011;43472;48.980;9.646;2023-08-17T13:19:53;7.65;;;4.35;;
28724;SDS011;43472;48.980;9.646;2023-08-17T13:24:54;5.90;;;4.07;;
28724;SDS011;43472;48.980;9.646;2023-08-17T13:29:56;5.85;;;4.20;;
28724;SDS011;43472;48.980;9.646;2023-08-17T13:35:01;6.70;;;4.68;;
28724;SDS011;43472;48.980;9.646;2023-08-17T13:40:06;7.30;;;5.00;;
28724;SDS011;43472;48.980;9.646;2023-08-17T13:45:08;7.00;;;5.05;;
28724;SDS011;43472;48.980;9.646;2023-08-17T13:50:10;9.00;;;5.13;;
28724;SDS011;43472;48.980;9.646;2023-08-17T13:55:12;11.35;;;6.72;;
28724;SDS011;43472;48.980;9.646;2023-08-17T14:00:14;8.18;;;5.47;;
28724;SDS011;43472;48.980;9.646;2023-08-17T14:05:16;7.03;;;5.18;;
28724;SDS011;43472;48.980;9.646;2023-08-17T14:10:18;8.35;;;5.25;;
28724;SDS011;43472;48.980;9.646;2023-08-17T14:15:37;9.18;;;5.20;;
28724;SDS011;43472;48.980;9.646;2023-08-17T14:20:39;7.28;;;5.82;;
28724;SDS011;43472;48.980;9.646;2023-08-17T14:25:41;7.38;;;6.00;;
28724;SDS011;43472;48.980;9.646;2023-08-17T14:30:43;6.95;;;5.32;;
28724;SDS011;43472;48.980;9.646;2023-08-17T14:35:44;9.18;;;5.97;;
28724;SDS011;43472;48.980;9.646;2023-08-17T14:40:46;10.02;;;5.60;;
28724;SDS011;43472;48.980;9.646;2023-08-17T14:45:49;8.93;;;6.30;;
28724;SDS011;43472;48.980;9.646;2023-08-17T14:50:51;7.25;;;6.07;;
28724;SDS011;43472;48.980;9.646;2023-08-17T14:55:53;9.63;;;5.63;;
28724;SDS011;43472;48.980;9.646;2023-08-17T15:00:55;7.28;;;5.75;;
28724;SDS011;43472;48.980;9.646;2023-08-17T15:05:57;6.53;;;5.07;;
28724;SDS011;43472;48.980;9.646;2023-08-17T15:10:59;7.90;;;6.53;;
28724;SDS011;43472;48.980;9.646;2023-08-17T15:16:03;11.30;;;5.82;;
28724;SDS011;43472;48.980;9.646;2023-08-17T15:21:05;10.00;;;5.57;;
28724;SDS011;43472;48.980;9.646;2023-08-17T15:26:07;9.63;;;6.20;;
28724;SDS011;43472;48.980;9.646;2023-08-17T15:31:09;8.15;;;6.03;;
28724;SDS011;43472;48.980;9.646;2023-08-17T15:36:14;9.00;;;6.25;;
28724;SDS011;43472;48.980;9.646;2023-08-17T15:41:19;9.43;;;6.00;;
28724;SDS011;43472;48.980;9.646;2023-08-17T15:46:21;11.18;;;5.40;;
28724;SDS011;43472;48.980;9.646;2023-08-17T15:51:23;10.27;;;5.38;;
28724;SDS011;43472;48.980;9.646;2023-08-17T15:56:25;9.65;;;5.25;;
28724;SDS011;43472;48.980;9.646;2023-08-17T16:01:27;6.93;;;5.63;;
28724;SDS011;43472;48.980;9.646;2023-08-17T16:06:29;8.55;;;6.15;;
28724;SDS011;43472;48.980;9.646;2023-08-17T16:11:31;9.50;;;7.68;;
28724;SDS011;43472;48.980;9.646;2023-08-17T16:16:38;8.98;;;6.85;;
28724;SDS011;43472;48.980;9.646;2023-08-17T16:21:40;14.02;;;6.90;;
28724;SDS011;43472;48.980;9.646;2023-08-17T16:26:41;12.75;;;7.03;;
28724;SDS011;43472;48.980;9.646;2023-08-17T16:31:43;7.55;;;5.75;;
28724;SDS011;43472;48.980;9.646;2023-08-17T16:36:45;10.55;;;6.80;;
28724;SDS011;43472;48.980;9.646;2023-08-17T16:41:47;9.38;;;6.40;;
28724;SDS011;43472;48.980;9.646;2023-08-17T16:46:50;9.52;;;6.43;;
28724;SDS011;43472;48.980;9.646;2023-08-17T16:51:51;8.32;;;6.13;;
28724;SDS011;43472;48.980;9.646;2023-08-17T16:56:53;6.20;;;5.57;;
28724;SDS011;43472;48.980;9.646;2023-08-17T17:01:56;7.78;;;5.40;;
28724;SDS011;43472;48.980;9.646;2023-08-17T17:06:58;7.22;;;6.30;;
28724;SDS011;43472;48.980;9.646;2023-08-17T17:12:01;7.38;;;5.95;;
28724;SDS011;43472;48.980;9.646;2023-08-17T17:17:04;8.77;;;6.03;;
28724;SDS011;43472;48.980;9.646;2023-08-17T17:22:07;7.82;;;6.65;;
28724;SDS011;43472;48.980;9.646;2023-08-17T17:27:08;13.35;;;7.43;;
28724;SDS011;43472;48.980;9.646;2023-08-17T17:32:10;12.25;;;7.53;;
28724;SDS011;43472;48.980;9.646;2023-08-17T17:37:12;9.13;;;6.05;;
28724;SDS011;43472;48.980;9.646;2023-08-17T17:42:14;8.88;;;5.78;;
28724;SDS011;43472;48.980;9.646;2023-08-17T17:47:16;15.23;;;7.05;;
28724;SDS011;43472;48.980;9.646;2023-08-17T17:52:18;13.65;;;7.75;;
28724;SDS011;43472;48.980;9.646;2023-08-17T17:57:19;10.70;;;7.07;;
28724;SDS011;43472;48.980;9.646;2023-08-17T18:02:25;13.32;;;7.40;;
28724;SDS011;43472;48.980;9.646;2023-08-17T18:07:27;13.30;;;7.15;;
28724;SDS011;43472;48.980;9.646;2023-08-17T18:12:29;8.75;;;6.80;;
28724;SDS011;43472;48.980;9.646;2023-08-17T18:17:33;11.02;;;7.07;;
28724;SDS011;43472;48.980;9.646;2023-08-17T18:22:35;16.17;;;8.45;;
28724;SDS011;43472;48.980;9.646;2023-08-17T18:27:37;16.45;;;8.43;;
28724;SDS011;43472;48.980;9.646;2023-08-17T18:32:41;9.93;;;7.65;;
28724;SDS011;43472;48.980;9.646;2023-08-17T18:37:42;12.13;;;7.93;;
28724;SDS011;43472;48.980;9.646;2023-08-17T18:42:46;12.30;;;7.53;;
28724;SDS011;43472;48.980;9.646;2023-08-17T18:47:49;9.30;;;7.93;;
28724;SDS011;43472;48.980;9.646;2023-08-17T18:52:51;10.55;;;8.05;;
28724;SDS011;43472;48.980;9.646;2023-08-17T18:57:53;17.25;;;8.00;;
28724;SDS011;43472;48.980;9.646;2023-08-17T19:02:56;11.80;;;8.25;;
28724;SDS011;43472;48.980;9.646;2023-08-17T19:07:58;11.98;;;7.75;;
28724;SDS011;43472;48.980;9.646;2023-08-17T19:13:01;11.25;;;8.98;;
28724;SDS011;43472;48.980;9.646;2023-08-17T19:18:03;12.63;;;9.60;;
28724;SDS011;43472;48.980;9.646;2023-08-17T19:23:07;15.30;;;9.02;;
28724;SDS011;43472;48.980;9.646;2023-08-17T19:28:09;12.68;;;8.35;;
28724;SDS011;43472;48.980;9.646;2023-08-17T19:33:10;15.00;;;9.13;;
28724;SDS011;43472;48.980;9.646;2023-08-17T19:38:12;12.85;;;9.55;;
28724;SDS011;43472;48.980;9.646;2023-08-17T19:43:14;11.55;;;8.98;;
28724;SDS011;43472;48.980;9.646;2023-08-17T19:48:17;13.93;;;9.60;;
28724;SDS011;43472;48.980;9.646;2023-08-17T19:53:18;13.02;;;8.43;;
28724;SDS011;43472;48.980;9.646;2023-08-17T19:58:20;21.48;;;9.68;;
28724;SDS011;43472;48.980;9.646;2023-08-17T20:03:22;18.10;;;9.43;;
28724;SDS011;43472;48.980;9.646;2023-08-17T20:08:25;32.80;;;11.43;;
28724;SDS011;43472;48.980;9.646;2023-08-17T20:13:27;19.10;;;10.73;;
28724;SDS011;43472;48.980;9.646;2023-08-17T20:18:29;15.85;;;10.15;;
28724;SDS011;43472;48.980;9.646;2023-08-17T20:23:32;18.55;;;11.60;;
28724;SDS011;43472;48.980;9.646;2023-08-17T20:28:34;15.43;;;9.65;;
28724;SDS011;43472;48.980;9.646;2023-08-17T20:33:36;10.13;;;6.93;;
28724;SDS011;43472;48.980;9.646;2023-08-17T20:38:37;12.38;;;7.50;;
28724;SDS011;43472;48.980;9.646;2023-08-17T20:43:39;13.30;;;6.28;;
28724;SDS011;43472;48.980;9.646;2023-08-17T20:48:41;18.13;;;7.93;;
28724;SDS011;43472;48.980;9.646;2023-08-17T20:53:43;11.95;;;5.53;;
28724;SDS011;43472;48.980;9.646;2023-08-17T20:58:44;8.95;;;5.80;;
28724;SDS011;43472;48.980;9.646;2023-08-17T21:03:47;10.32;;;6.13;;
28724;SDS011;43472;48.980;9.646;2023-08-17T21:08:48;13.43;;;6.25;;
28724;SDS011;43472;48.980;9.646;2023-08-17T21:13:50;10.80;;;5.38;;
28724;SDS011;43472;48.980;9.646;2023-08-17T21:18:52;7.55;;;5.53;;
28724;SDS011;43472;48.980;9.646;2023-08-17T21:24:00;12.00;;;6.90;;
28724;SDS011;43472;48.980;9.646;2023-08-17T21:29:02;8.40;;;6.07;;
28724;SDS011;43472;48.980;9.646;2023-08-17T21:34:04;8.13;;;6.28;;
28724;SDS011;43472;48.980;9.646;2023-08-17T21:39:06;11.25;;;5.57;;
28724;SDS011;43472;48.980;9.646;2023-08-17T21:44:07;7.65;;;5.60;;
28724;SDS011;43472;48.980;9.646;2023-08-17T21:49:09;11.05;;;6.35;;
28724;SDS011;43472;48.980;9.646;2023-08-17T21:54:11;7.97;;;6.38;;
28724;SDS011;43472;48.980;9.646;2023-08-17T21:59:13;12.48;;;6.30;;
28724;SDS011;43472;48.980;9.646;2023-08-17T22:04:15;7.78;;;6.20;;
28724;SDS011;43472;48.980;9.646;2023-08-17T22:09:16;12.60;;;5.47;;
28724;SDS011;43472;48.980;9.646;2023-08-17T22:14:18;12.88;;;5.35;;
28724;SDS011;43472;48.980;9.646;2023-08-17T22:19:20;7.97;;;4.43;;
28724;SDS011;43472;48.980;9.646;2023-08-17T22:24:22;6.70;;;4.50;;
28724;SDS011;43472;48.980;9.646;2023-08-17T22:29:27;10.52;;;5.72;;
28724;SDS011;43472;48.980;9.646;2023-08-17T22:34:29;8.02;;;4.05;;
28724;SDS011;43472;48.980;9.646;2023-08-17T22:39:31;9.98;;;4.13;;
28724;SDS011;43472;48.980;9.646;2023-08-17T22:44:33;7.75;;;4.45;;
28724;SDS011;43472;48.980;9.646;2023-08-17T22:49:34;9.95;;;4.38;;
28724;SDS011;43472;48.980;9.646;2023-08-17T22:54:37;5.28;;;3.72;;
28724;SDS011;43472;48.980;9.646;2023-08-17T22:59:39;9.38;;;4.05;;
28724;SDS011;43472;48.980;9.646;2023-08-17T23:04:41;7.95;;;4.45;;
28724;SDS011;43472;48.980;9.646;2023-08-17T23:09:43;11.10;;;4.70;;
28724;SDS011;43472;48.980;9.646;2023-08-17T23:14:44;6.78;;;4.00;;
28724;SDS011;43472;48.980;9.646;2023-08-17T23:19:47;10.80;;;4.38;;
28724;SDS011;43472;48.980;9.646;2023-08-17T23:24:49;4.68;;;3.33;;
28724;SDS011;43472;48.980;9.646;2023-08-17T23:29:51;11.98;;;3.42;;
28724;SDS011;43472;48.980;9.646;2023-08-17T23:34:52;8.02;;;3.85;;
28724;SDS011;43472;48.980;9.646;2023-08-17T23:39:54;7.47;;;3.90;;
28724;SDS011;43472;48.980;9.646;2023-08-17T23:44:56;13.07;;;3.70;;
28724;SDS011;43472;48.980;9.646;2023-08-17T23:49:58;6.22;;;3.40;;
28724;SDS011;43472;48.980;9.646;2023-08-17T23:55:00;10.43;;;3.63;;
